METAR Principali Aeroporti Italiani

 

LIPF - Ferrara, It
Distance from station: 8 km
Updated: Fri, 18-Jan-2019 3:55pm CET
Partly Cloudy
Partly Cloudy
 Wind from NE
Wind: NE 7 mph , 11 km/h
Temperature: 45°F , 7°C
Wind Chill: 41°F , 5°C
Dew Point: 41°F , 5°C
Humidity: 87%
Barometer: 29.94 inHg , 1014 hPa
Clouds: Partly Cloudy
Visibility: 6 miles , 10 km
Cloud details: Partly Cloudy 2000 ft
Partly Cloudy 7000 ft
2019/01/18 14:55 LIPF 181455Z 04006KT 9999 SCT020 SCT070 07/05 Q1014
LIPE - Bologna Borgo Panigale, It
Distance from station: 46 km
Updated: Fri, 18-Jan-2019 4:20pm CET
Mist, Mostly cloudy
Mist, Mostly cloudy
 Wind from NE
Wind: NE 6 mph , 9 km/h
Temperature: 45°F , 7°C
Wind Chill: 42°F , 6°C
Dew Point: 41°F , 5°C
Humidity: 87%
Barometer: 29.94 inHg , 1014 hPa
Summary: Mist
Clouds: Mostly Cloudy
Visibility: 2 miles , 3 km
Cloud details: Partly Cloudy 600 ft
Mostly Cloudy 1000 ft
2019/01/18 15:20 LIPE 181520Z 05005KT 3000 BR SCT006 BKN010 07/05 Q1014
LIMF - Torino Caselle, It
Distance from station: 320 km
Updated: Fri, 18-Jan-2019 4:20pm CET
Clear
Clear
 Wind from varies
Wind: varies 2 mph , 4 km/h
Temperature: 48°F , 9°C
Dew Point: 21°F , -6°C
Humidity: 34%
Barometer: 29.88 inHg , 1012 hPa
Summary: Clear
Visibility: greater than 7 miles , 10 km
2019/01/18 15:20 LIMF 181520Z VRB02KT CAVOK 09/M06 Q1012
 
LIML - Milano Malpensa, It
Distance from station: 249 km
Updated: Fri, 18-Jan-2019 4:20pm CET
Few Clouds
Few Clouds
 Wind from E
Wind: E 7 mph , 11 km/h
Temperature: 43°F , 6°C
Wind Chill: 39°F , 4°C
Dew Point: 39°F , 4°C
Humidity: 87%
Barometer: 29.94 inHg , 1014 hPa
Clouds: Few Clouds
Visibility: 5 miles , 8 km
Cloud details: Few Clouds 4500 ft
2019/01/18 15:20 LIML 181520Z 10006KT 8000 FEW045 06/04 Q1014 NOSIG
LIME - Bergamo Orio al Serio, It
Distance from station: 181 km
Updated: Fri, 18-Jan-2019 4:20pm CET
Partly Cloudy
Partly Cloudy
 Wind from SE
Wind: SE 9 mph , 15 km/h
Temperature: 45°F , 7°C
Wind Chill: 40°F , 4°C
Dew Point: 39°F , 4°C
Humidity: 81%
Barometer: 29.91 inHg , 1013 hPa
Clouds: Partly Cloudy
Visibility: 4 miles , 6 km
Cloud details: Partly Cloudy 1000 ft
2019/01/18 15:20 LIME 181520Z 14008KT 6000 SCT010 07/04 Q1013 NOSIG
LIPZ - Venezia Tessera, It
Distance from station: 93 km
Updated: Fri, 18-Jan-2019 4:20pm CET
Mostly Cloudy
Mostly Cloudy
 Wind from E
Wind: E 21 mph , 33 km/h
Temperature: 45°F , 7°C
Wind Chill: 37°F , 3°C
Dew Point: 36°F , 2°C
Humidity: 71%
Barometer: 29.94 inHg , 1014 hPa
Clouds: Mostly Cloudy
Visibility: 6 miles , 10 km
Cloud details: Partly Cloudy 4400 ft
Mostly Cloudy 5200 ft
2019/01/18 15:20 LIPZ 181520Z 08018KT 9999 SCT044 BKN052 07/02 Q1014 NOSIG
 
LIVT - Trieste, It
Distance from station: 179 km
Updated: Fri, 18-Jan-2019 3:55pm CET
Mostly Cloudy
Mostly Cloudy
 Wind from NNE
Wind: NNE 17 mph , 28 km/h, Gust: 40 mph , 65 km/h
Temperature: 45°F , 7°C
Wind Chill: 38°F , 3°C
Dew Point: 32°F , 0°C
Humidity: 61%
Barometer: 29.91 inHg , 1013 hPa
Clouds: Mostly Cloudy
Visibility: 6 miles , 10 km
Cloud details: Mostly Cloudy 5000 ft
2019/01/18 14:55 LIVT 181455Z 03015G35KT 9999 BKN050 07/00 Q1013 RMK BKN QUK 4 QUL 2 NE VIS MAR 15 KM VIS MIN 9999
LIMJ - Genova, It
Distance from station: 229 km
Updated: Fri, 18-Jan-2019 4:20pm CET
Clear
Clear
 Wind from N
Wind: N 12 mph , 19 km/h
Temperature: 54°F , 12°C
Dew Point: 25°F , -4°C
Humidity: 33%
Barometer: 29.85 inHg , 1011 hPa
Summary: Clear
Visibility: greater than 7 miles , 10 km
2019/01/18 15:20 LIMJ 181520Z 35010KT 310V030 CAVOK 12/M04 Q1011
LIRQ - Firenze Amerigo Vespucci, It
Distance from station: 119 km
Updated: Fri, 18-Jan-2019 4:20pm CET
Partly Cloudy
Partly Cloudy
 Wind from SSE
Wind: SSE 5 mph , 7 km/h
Temperature: 54°F , 12°C
Dew Point: 39°F , 4°C
Humidity: 58%
Barometer: 29.85 inHg , 1011 hPa
Clouds: Partly Cloudy
Visibility: 6 miles , 10 km
Cloud details: Partly Cloudy 4000 ft
2019/01/18 15:20 LIRQ 181520Z 16004KT 9999 SCT040 12/04 Q1011
 
LIPY - Ancona, It
Distance from station: 189 km
Updated: Fri, 18-Jan-2019 3:50pm CET
Light rain, Mist, Mostly cloudy
Light rain, Mist, Mostly cloudy
 Wind from NNW
Wind: NNW 7 mph , 11 km/h
Temperature: 46°F , 8°C
Wind Chill: 42°F , 6°C
Dew Point: 46°F , 8°C
Humidity: 100%
Barometer: 29.91 inHg , 1013 hPa
Summary: Light rain, Mist
Clouds: Mostly Cloudy
Visibility: 2 miles , 3 km
Cloud details: Partly Cloudy 400 ft
Mostly Cloudy 1200 ft
2019/01/18 14:50 LIPY 181450Z 34006KT 300V010 3000 -RA BR SCT004 BKN012 08/08 Q1013
LIBP - Pescara, It
Distance from station: 333 km
Updated: Fri, 18-Jan-2019 3:50pm CET
Partly Cloudy
Partly Cloudy
 Wind from NE
Wind: NE 6 mph , 9 km/h
Temperature: 54°F , 12°C
Dew Point: 41°F , 5°C
Humidity: 63%
Barometer: 29.85 inHg , 1011 hPa
Clouds: Partly Cloudy
Visibility: 6 miles , 10 km
Cloud details: Partly Cloudy 9000 ft
2019/01/18 14:50 LIBP 181450Z 04005KT 9999 SCT090 12/05 Q1011
LIRF - Roma-Fiumicino, It
Distance from station: km
Updated: Fri, 18-Jan-2019 4:20pm CET
Partly Cloudy
Partly Cloudy
 Wind from WSW
Wind: WSW 12 mph , 19 km/h
Temperature: 54°F , 12°C
Dew Point: 43°F , 6°C
Humidity: 67%
Barometer: 29.91 inHg , 1013 hPa
Clouds: Partly Cloudy
Visibility: 6 miles , 10 km
Cloud details: Partly Cloudy 3000 ft
2019/01/18 15:20 LIRF 181520Z 25010KT 9999 SCT030 12/06 Q1013 NOSIG
 
LIRN - Napoli Capodichino, It
Distance from station: km
Updated: Fri, 18-Jan-2019 4:20pm CET
Partly Cloudy
Partly Cloudy
 Wind from SSW
Wind: SSW 6 mph , 9 km/h
Temperature: 55°F , 13°C
Dew Point: 45°F , 7°C
Humidity: 67%
Barometer: 29.91 inHg , 1013 hPa
Clouds: Partly Cloudy
Visibility: 6 miles , 10 km
Cloud details: Few Clouds 2000 ft
Partly Cloudy 4000 ft
2019/01/18 15:20 LIRN 181520Z 20005KT 170V240 9999 FEW020 SCT040 13/07 Q1013 NOSIG
LIBD - Bari Palese, It
Distance from station: km
Updated: Fri, 18-Jan-2019 4:20pm CET
Clear
Clear
 Wind from calm
Wind: Calm
Temperature: 52°F , 11°C
Dew Point: 41°F , 5°C
Humidity: 67%
Barometer: 29.91 inHg , 1013 hPa
Summary: Clear
Visibility: greater than 7 miles , 10 km
2019/01/18 15:20 LIBD 181520Z 00000KT CAVOK 11/05 Q1013
LIBG - Taranto Grottaglie, It
Distance from station: km
Updated: Fri, 18-Jan-2019 3:50pm CET
Few Clouds
Few Clouds
 Wind from WSW
Wind: WSW 5 mph , 7 km/h
Temperature: 55°F , 13°C
Dew Point: 45°F , 7°C
Humidity: 67%
Barometer: 29.94 inHg , 1014 hPa
Clouds: Few Clouds
Visibility: 6 miles , 10 km
Cloud details: Few Clouds 4000 ft
2019/01/18 14:50 LIBG 181450Z 25004KT 9999 FEW040 13/07 Q1014
 
LICR - Reggio Calabria, It
Distance from station: km
Updated: Fri, 18-Jan-2019 3:50pm CET
Few Clouds
Few Clouds
 Wind from SSW
Wind: SSW 7 mph , 11 km/h
Temperature: 59°F , 15°C
Dew Point: 48°F , 9°C
Humidity: 68%
Barometer: 29.97 inHg , 1015 hPa
Clouds: Few Clouds
Visibility: 6 miles , 10 km
Cloud details: Few Clouds 3000 ft
2019/01/18 14:50 LICR 181450Z 21006KT 9999 FEW030 15/09 Q1015
LICJ - Palermo Punta Raisi, It
Distance from station: km
Updated: Fri, 18-Jan-2019 4:20pm CET
Mostly Cloudy
Mostly Cloudy
 Wind from NNE
Wind: NNE 5 mph , 7 km/h
Temperature: 57°F , 14°C
Dew Point: 46°F , 8°C
Humidity: 67%
Barometer: 29.94 inHg , 1014 hPa
Clouds: Mostly Cloudy
Visibility: 6 miles , 10 km
Cloud details: Mostly Cloudy 4000 ft
2019/01/18 15:20 LICJ 181520Z 02004KT 340V060 9999 BKN040 14/08 Q1014
LICC - Catania Fontanarossa, It
Distance from station: km
Updated: Fri, 18-Jan-2019 4:20pm CET
Few Clouds
Few Clouds
 Wind from SE
Wind: SE 8 mph , 13 km/h
Temperature: 59°F , 15°C
Dew Point: 50°F , 10°C
Humidity: 72%
Barometer: 29.97 inHg , 1015 hPa
Clouds: Few Clouds
Visibility: 6 miles , 10 km
Cloud details: Few Clouds 4000 ft
2019/01/18 15:20 LICC 181520Z 14007KT 9999 FEW040 15/10 Q1015
 
LIEE - Cagliari Elmas, It
Distance from station: km
Updated: Fri, 18-Jan-2019 4:20pm CET
Clear
Clear
 Wind from NNW
Wind: NNW 16 mph , 26 km/h
Temperature: 55°F , 13°C
Dew Point: 41°F , 5°C
Humidity: 59%
Barometer: 29.94 inHg , 1014 hPa
Summary: Clear
Visibility: greater than 7 miles , 10 km
2019/01/18 15:20 LIEE 181520Z 33014KT CAVOK 13/05 Q1014
LIEO - Olbia, It
Distance from station: km
Updated: Fri, 18-Jan-2019 4:20pm CET
Few Clouds
Few Clouds
 Wind from W
Wind: W 20 mph , 31 km/h
Temperature: 54°F , 12°C
Dew Point: 36°F , 2°C
Humidity: 51%
Barometer: 29.91 inHg , 1013 hPa
Clouds: Few Clouds
Visibility: 6 miles , 10 km
Cloud details: Few Clouds 4000 ft
2019/01/18 15:20 LIEO 181520Z 27017KT 9999 FEW040 12/02 Q1013
LICG - Pantelleria, It
Distance from station: km
Updated: Fri, 18-Jan-2019 3:55pm CET
Partly Cloudy
Partly Cloudy
 Wind from varies
Wind: varies 0 mph , 0 km/h
Temperature: 55°F , 13°C
Dew Point: 50°F , 10°C
Humidity: 82%
Barometer: 29.97 inHg , 1015 hPa
Clouds: Partly Cloudy
Visibility: 6 miles , 10 km
Cloud details: Few Clouds 1000 ft
Partly Cloudy 2000 ft
2019/01/18 14:55 LICG 181455Z /////KT 9999 FEW010 SCT020 13/10 Q1015

Metar display script from Saratoga-Weather.org